createdAt,value
2016-12-21T00:00:30.206Z,960.23
2016-12-21T00:01:30.219Z,960.21
2016-12-21T00:02:30.231Z,960.18
2016-12-21T00:03:30.243Z,960.18
2016-12-21T00:04:30.254Z,960.18
2016-12-21T00:05:30.266Z,960.22
2016-12-21T00:06:30.277Z,960.2
2016-12-21T00:07:30.291Z,960.19
2016-12-21T00:08:30.301Z,960.2
2016-12-21T00:09:30.312Z,960.24
2016-12-21T00:10:30.326Z,960.21
2016-12-21T00:11:30.336Z,960.23
2016-12-21T00:12:30.368Z,960.17
2016-12-21T00:13:30.360Z,960.18
2016-12-21T00:14:30.373Z,960.21
2016-12-21T00:15:30.384Z,960.19
2016-12-21T00:16:30.398Z,960.18
2016-12-21T00:17:30.409Z,960.21
2016-12-21T00:18:30.423Z,960.22
2016-12-21T00:19:30.434Z,960.22
2016-12-21T00:20:30.444Z,960.23
2016-12-21T00:21:30.456Z,960.22
2016-12-21T00:22:30.466Z,960.21
2016-12-21T00:23:30.479Z,960.21
2016-12-21T00:24:30.491Z,960.22
2016-12-21T00:25:30.504Z,960.19
2016-12-21T00:26:30.517Z,960.2
2016-12-21T00:27:30.527Z,960.23
2016-12-21T00:28:30.538Z,960.23
2016-12-21T00:29:30.552Z,960.23
2016-12-21T00:30:30.561Z,960.23
2016-12-21T00:31:30.572Z,960.27
2016-12-21T00:32:30.586Z,960.27
2016-12-21T00:33:30.597Z,960.27
2016-12-21T00:34:30.609Z,960.32
2016-12-21T00:35:30.621Z,960.34
2016-12-21T00:36:30.633Z,960.36
2016-12-21T00:37:30.645Z,960.38
2016-12-21T00:38:30.657Z,960.41
2016-12-21T00:39:30.668Z,960.39
2016-12-21T00:40:30.680Z,960.43
2016-12-21T00:41:30.697Z,960.43
2016-12-21T00:42:30.704Z,960.39
2016-12-21T00:43:30.716Z,960.38
2016-12-21T00:44:30.726Z,960.4
2016-12-21T00:45:30.739Z,960.39
2016-12-21T00:46:30.752Z,960.37
2016-12-21T00:47:30.764Z,960.38
2016-12-21T00:48:30.792Z,960.45
2016-12-21T00:49:30.787Z,960.43
2016-12-21T00:50:30.799Z,960.45
2016-12-21T00:51:30.811Z,960.45
2016-12-21T00:52:30.822Z,960.42
2016-12-21T00:53:30.834Z,960.45
2016-12-21T00:54:30.847Z,960.49
2016-12-21T00:55:30.857Z,960.48
2016-12-21T00:56:30.870Z,960.52
2016-12-21T00:57:30.881Z,960.53
2016-12-21T00:58:30.892Z,960.53
2016-12-21T00:59:30.905Z,960.5
2016-12-21T01:00:30.916Z,960.48
2016-12-21T01:01:30.928Z,960.55
2016-12-21T01:02:30.939Z,960.53
2016-12-21T01:03:30.952Z,960.54
2016-12-21T01:04:30.963Z,960.54
2016-12-21T01:05:30.978Z,960.55
2016-12-21T01:06:30.985Z,960.54
2016-12-21T01:07:30.999Z,960.57
2016-12-21T01:08:31.009Z,960.56
2016-12-21T01:09:31.021Z,960.59
2016-12-21T01:10:31.032Z,960.56
2016-12-21T01:11:31.043Z,960.6
2016-12-21T01:12:31.056Z,960.61
2016-12-21T01:13:31.068Z,960.61
2016-12-21T01:14:31.079Z,960.66
2016-12-21T01:15:31.091Z,960.65
2016-12-21T01:16:31.110Z,960.63
2016-12-21T01:17:31.114Z,960.63
2016-12-21T01:18:31.126Z,960.62
2016-12-21T01:19:31.137Z,960.64
2016-12-21T01:20:31.148Z,960.68
2016-12-21T01:21:31.161Z,960.68
2016-12-21T01:22:31.175Z,960.71
2016-12-21T01:23:31.195Z,960.68
2016-12-21T01:24:31.196Z,960.71
2016-12-21T01:25:31.209Z,960.71
2016-12-21T01:26:31.221Z,960.71
2016-12-21T01:27:31.233Z,960.71
2016-12-21T01:28:31.244Z,960.75
2016-12-21T01:29:31.255Z,960.69
2016-12-21T01:30:31.267Z,960.69
2016-12-21T01:31:31.280Z,960.74
2016-12-21T01:32:31.312Z,960.76
2016-12-21T01:33:31.302Z,960.73
2016-12-21T01:34:31.314Z,960.79
2016-12-21T01:35:31.325Z,960.76
2016-12-21T01:36:31.337Z,960.74
2016-12-21T01:37:31.351Z,960.73
2016-12-21T01:38:31.361Z,960.78
2016-12-21T01:39:31.372Z,960.76
2016-12-21T01:40:31.384Z,960.75
2016-12-21T01:41:31.397Z,960.8
2016-12-21T01:42:31.409Z,960.77
2016-12-21T01:43:31.419Z,960.8
2016-12-21T01:44:31.430Z,960.76
2016-12-21T01:45:31.462Z,960.76
2016-12-21T01:46:31.454Z,960.77
2016-12-21T01:47:31.468Z,960.75
2016-12-21T01:48:31.477Z,960.76
2016-12-21T01:49:31.489Z,960.74
2016-12-21T01:50:31.501Z,960.74
2016-12-21T01:51:31.511Z,960.73
2016-12-21T01:52:31.528Z,960.77
2016-12-21T01:53:31.536Z,960.77
2016-12-21T01:54:31.547Z,960.77
2016-12-21T01:55:31.559Z,960.75
2016-12-21T01:56:31.570Z,960.74
2016-12-21T01:57:31.582Z,960.73
2016-12-21T01:58:31.594Z,960.7
2016-12-21T01:59:31.606Z,960.73
2016-12-21T02:00:31.618Z,960.77
2016-12-21T02:01:31.628Z,960.75
2016-12-21T02:02:31.640Z,960.76
2016-12-21T02:03:31.652Z,960.81
2016-12-21T02:04:31.664Z,960.79
2016-12-21T02:05:31.675Z,960.76
2016-12-21T02:06:31.687Z,960.77
2016-12-21T02:07:31.698Z,960.72
2016-12-21T02:08:31.709Z,960.79
2016-12-21T02:09:31.721Z,960.78
2016-12-21T02:10:31.733Z,960.8
2016-12-21T02:11:31.745Z,960.84
2016-12-21T02:12:31.755Z,960.85
2016-12-21T02:13:31.782Z,960.84
2016-12-21T02:14:31.779Z,960.86
2016-12-21T02:15:31.791Z,960.86
2016-12-21T02:16:31.801Z,960.87
2016-12-21T02:17:31.813Z,960.87
2016-12-21T02:18:31.826Z,960.88
2016-12-21T02:19:31.836Z,960.92
2016-12-21T02:20:31.849Z,960.94
2016-12-21T02:21:31.859Z,960.89
2016-12-21T02:22:31.871Z,960.91
2016-12-21T02:23:31.882Z,960.86
2016-12-21T02:24:31.893Z,960.87
2016-12-21T02:25:31.906Z,960.84
2016-12-21T02:26:31.917Z,960.83
2016-12-21T02:27:31.929Z,960.8
2016-12-21T02:28:31.940Z,960.81
2016-12-21T02:29:31.951Z,960.8
2016-12-21T02:30:31.963Z,960.83
2016-12-21T02:31:31.975Z,960.77
2016-12-21T02:32:31.986Z,960.8
2016-12-21T02:33:31.997Z,960.8
2016-12-21T02:34:32.010Z,960.78
2016-12-21T02:35:32.021Z,960.82
2016-12-21T02:36:32.032Z,960.81
2016-12-21T02:37:32.043Z,960.8
2016-12-21T02:38:32.054Z,960.8
2016-12-21T02:39:32.066Z,960.79
2016-12-21T02:40:32.078Z,960.79
2016-12-21T02:41:32.089Z,960.81
2016-12-21T02:42:32.100Z,960.8
2016-12-21T02:43:32.112Z,960.81
2016-12-21T02:44:32.123Z,960.81
2016-12-21T02:45:32.135Z,960.79
2016-12-21T02:46:32.146Z,960.76
2016-12-21T02:47:32.158Z,960.81
2016-12-21T02:48:32.169Z,960.79
2016-12-21T02:49:32.199Z,960.81
2016-12-21T02:50:32.195Z,960.79
2016-12-21T02:51:32.203Z,960.84
2016-12-21T02:52:32.214Z,960.87
2016-12-21T02:53:32.226Z,960.88
2016-12-21T02:54:32.239Z,960.86
2016-12-21T02:55:32.250Z,960.88
2016-12-21T02:56:32.265Z,960.86
2016-12-21T02:57:32.274Z,960.87
2016-12-21T02:58:32.284Z,960.83
2016-12-21T02:59:32.296Z,960.89
2016-12-21T03:00:32.309Z,960.9
2016-12-21T03:01:32.319Z,960.87
2016-12-21T03:02:32.331Z,960.92
2016-12-21T03:03:32.347Z,960.91
2016-12-21T03:04:32.352Z,960.88
2016-12-21T03:05:32.365Z,960.93
2016-12-21T03:06:32.376Z,960.88
2016-12-21T03:07:32.387Z,960.88
2016-12-21T03:08:32.399Z,960.91
2016-12-21T03:09:32.411Z,960.94
2016-12-21T03:10:32.421Z,960.91
2016-12-21T03:11:32.432Z,960.94
2016-12-21T03:12:32.445Z,960.91
2016-12-21T03:13:32.456Z,960.92
2016-12-21T03:14:32.467Z,960.92
2016-12-21T03:15:32.479Z,960.88
2016-12-21T03:16:32.490Z,960.93
2016-12-21T03:17:32.597Z,960.92
2016-12-21T03:18:32.512Z,960.91
2016-12-21T03:19:32.525Z,960.92
2016-12-21T03:20:32.545Z,960.91
2016-12-21T03:21:32.547Z,960.94
2016-12-21T03:22:32.559Z,960.93
2016-12-21T03:23:32.570Z,960.89
2016-12-21T03:24:32.583Z,960.94
2016-12-21T03:25:32.592Z,960.98
2016-12-21T03:26:32.605Z,960.98
2016-12-21T03:27:32.734Z,961.01
2016-12-21T03:28:32.627Z,960.98
2016-12-21T03:29:32.639Z,961.02
2016-12-21T03:30:32.650Z,961.03
2016-12-21T03:31:32.667Z,961.06
2016-12-21T03:32:32.673Z,961.05
2016-12-21T03:33:32.685Z,961.09
2016-12-21T03:34:32.696Z,961.13
2016-12-21T03:35:32.708Z,961.11
2016-12-21T03:36:32.719Z,961.11
2016-12-21T03:37:32.733Z,961.18
2016-12-21T03:38:32.742Z,961.14
2016-12-21T03:39:32.754Z,961.12
2016-12-21T03:40:32.764Z,961.16
2016-12-21T03:41:32.777Z,961.2
2016-12-21T03:42:32.788Z,961.2
2016-12-21T03:43:32.817Z,961.12
2016-12-21T03:44:32.811Z,961.16
2016-12-21T03:45:32.823Z,961.1
2016-12-21T03:46:32.835Z,961.08
2016-12-21T03:47:32.847Z,961.09
2016-12-21T03:48:32.857Z,961.13
2016-12-21T03:49:32.869Z,961.09
2016-12-21T03:50:32.880Z,961.1
2016-12-21T03:51:32.891Z,961.12
2016-12-21T03:52:32.903Z,961.12
2016-12-21T03:53:32.935Z,961.11
2016-12-21T03:54:32.927Z,961.14
2016-12-21T03:55:32.937Z,961.11
2016-12-21T03:56:32.949Z,961.14
2016-12-21T03:57:32.961Z,961.2
2016-12-21T03:58:32.972Z,961.21
2016-12-21T03:59:32.985Z,961.27
2016-12-21T04:00:33.002Z,961.24
2016-12-21T04:01:33.007Z,961.27
2016-12-21T04:02:33.018Z,961.29
2016-12-21T04:03:33.031Z,961.27
2016-12-21T04:04:33.043Z,961.3
2016-12-21T04:05:33.053Z,961.29
2016-12-21T04:06:33.065Z,961.31
2016-12-21T04:07:33.077Z,961.27
2016-12-21T04:08:33.089Z,961.28
2016-12-21T04:09:33.100Z,961.31
2016-12-21T04:10:33.112Z,961.29
2016-12-21T04:11:33.124Z,961.25
2016-12-21T04:12:33.137Z,961.29
2016-12-21T04:13:33.147Z,961.26
2016-12-21T04:14:33.158Z,961.32
2016-12-21T04:15:33.170Z,961.31
2016-12-21T04:16:33.182Z,961.29
2016-12-21T04:17:33.193Z,961.29
2016-12-21T04:18:33.205Z,961.36
2016-12-21T04:19:33.217Z,961.36
2016-12-21T04:20:33.228Z,961.38
2016-12-21T04:21:33.255Z,961.4
2016-12-21T04:22:33.252Z,961.39
2016-12-21T04:23:33.263Z,961.38
2016-12-21T04:24:33.276Z,961.34
2016-12-21T04:25:33.286Z,961.38
2016-12-21T04:26:33.299Z,961.34
2016-12-21T04:27:33.310Z,961.39
2016-12-21T04:28:33.322Z,961.36
2016-12-21T04:29:33.332Z,961.36
2016-12-21T04:30:33.345Z,961.38
2016-12-21T04:31:33.355Z,961.34
2016-12-21T04:32:33.367Z,961.34
2016-12-21T04:33:33.379Z,961.37
2016-12-21T04:34:33.392Z,961.36
2016-12-21T04:35:33.403Z,961.41
2016-12-21T04:36:33.414Z,961.42
2016-12-21T04:37:33.426Z,961.4
2016-12-21T04:38:33.437Z,961.43
2016-12-21T04:39:33.449Z,961.47
2016-12-21T04:40:33.460Z,961.42
2016-12-21T04:41:33.473Z,961.42
2016-12-21T04:42:33.484Z,961.47
2016-12-21T04:43:33.496Z,961.43
2016-12-21T04:44:33.506Z,961.37
2016-12-21T04:45:33.518Z,961.39
2016-12-21T04:46:33.529Z,961.4
2016-12-21T04:47:33.541Z,961.38
2016-12-21T04:48:33.554Z,961.43
2016-12-21T04:49:33.563Z,961.47
2016-12-21T04:50:33.577Z,961.44
2016-12-21T04:51:33.590Z,961.43
2016-12-21T04:52:33.599Z,961.43
2016-12-21T04:53:33.610Z,961.44
2016-12-21T04:54:33.623Z,961.46
2016-12-21T04:55:33.634Z,961.48
2016-12-21T04:56:33.644Z,961.5
2016-12-21T04:57:33.675Z,961.54
2016-12-21T04:58:33.669Z,961.58
2016-12-21T04:59:33.678Z,961.6
2016-12-21T05:00:33.691Z,961.59
2016-12-21T05:01:33.703Z,961.63
2016-12-21T05:02:33.715Z,961.68
2016-12-21T05:03:33.727Z,961.71
2016-12-21T05:04:33.742Z,961.67
2016-12-21T05:05:33.749Z,961.67
2016-12-21T05:06:33.761Z,961.6
2016-12-21T05:07:33.770Z,961.61
2016-12-21T05:08:33.816Z,961.63
2016-12-21T05:09:33.795Z,961.66
2016-12-21T05:10:33.807Z,961.64
2016-12-21T05:11:33.825Z,961.68
2016-12-21T05:12:33.829Z,961.72
2016-12-21T05:13:33.841Z,961.72
2016-12-21T05:14:33.852Z,961.74
2016-12-21T05:15:33.863Z,961.72
2016-12-21T05:16:33.875Z,961.8
2016-12-21T05:17:33.886Z,961.77
2016-12-21T05:18:33.897Z,961.81
2016-12-21T05:19:33.909Z,961.82
2016-12-21T05:20:33.922Z,961.79
2016-12-21T05:21:33.933Z,961.84
2016-12-21T05:22:33.943Z,961.86
2016-12-21T05:23:33.955Z,961.86
2016-12-21T05:24:33.967Z,961.88
2016-12-21T05:25:33.999Z,961.82
2016-12-21T05:26:33.989Z,961.86
2016-12-21T05:27:34.001Z,961.88
2016-12-21T05:28:34.014Z,961.89
2016-12-21T05:29:34.024Z,961.91
2016-12-21T05:30:34.036Z,961.91
2016-12-21T05:31:34.048Z,961.89
2016-12-21T05:32:34.063Z,961.93
2016-12-21T05:33:34.071Z,961.99
2016-12-21T05:34:34.082Z,962
2016-12-21T05:35:34.094Z,962
2016-12-21T05:36:34.105Z,962.01
2016-12-21T05:37:34.115Z,962
2016-12-21T05:38:34.128Z,962
2016-12-21T05:39:34.147Z,962.02
2016-12-21T05:40:34.150Z,962.06
2016-12-21T05:41:34.162Z,962.03
2016-12-21T05:42:34.174Z,962.03
2016-12-21T05:43:34.186Z,962.04
2016-12-21T05:44:34.197Z,962.05
2016-12-21T05:45:34.210Z,962.08
2016-12-21T05:46:34.221Z,962.08
2016-12-21T05:47:34.232Z,962.08
2016-12-21T05:48:34.242Z,962.05
2016-12-21T05:49:34.255Z,962.14
2016-12-21T05:50:34.267Z,962.1
2016-12-21T05:51:34.279Z,962.12
2016-12-21T05:52:34.290Z,962.19
2016-12-21T05:53:34.301Z,962.17
2016-12-21T05:54:34.313Z,962.15
2016-12-21T05:55:34.324Z,962.16
2016-12-21T05:56:34.336Z,962.18
2016-12-21T05:57:34.347Z,962.17
2016-12-21T05:58:34.358Z,962.13
2016-12-21T05:59:34.371Z,962.13
2016-12-21T06:00:34.382Z,962.14
2016-12-21T06:01:34.418Z,962.17
2016-12-21T06:02:34.405Z,962.22
2016-12-21T06:03:34.417Z,962.21
2016-12-21T06:04:34.429Z,962.22
2016-12-21T06:05:34.440Z,962.23
2016-12-21T06:06:34.452Z,962.21
2016-12-21T06:07:34.463Z,962.26
2016-12-21T06:08:34.482Z,962.22
2016-12-21T06:09:34.488Z,962.23
2016-12-21T06:10:34.498Z,962.19
2016-12-21T06:11:34.510Z,962.26
2016-12-21T06:12:34.522Z,962.23
2016-12-21T06:13:34.532Z,962.24
2016-12-21T06:14:34.547Z,962.17
2016-12-21T06:15:34.558Z,962.15
2016-12-21T06:16:34.568Z,962.15
2016-12-21T06:17:34.578Z,962.13
2016-12-21T06:18:34.590Z,962.1
2016-12-21T06:19:34.603Z,962.14
2016-12-21T06:20:34.612Z,962.13
2016-12-21T06:21:34.627Z,962.14
2016-12-21T06:22:34.637Z,962.14
2016-12-21T06:23:34.648Z,962.17
2016-12-21T06:24:34.659Z,962.1
2016-12-21T06:25:34.671Z,962.16
2016-12-21T06:26:34.682Z,962.13
2016-12-21T06:27:34.694Z,962.12
2016-12-21T06:28:34.704Z,962.13
2016-12-21T06:29:34.735Z,962.12
2016-12-21T06:30:34.728Z,962.14
2016-12-21T06:31:34.738Z,962.1
2016-12-21T06:32:34.749Z,962.13
2016-12-21T06:33:34.762Z,962.12
2016-12-21T06:34:34.773Z,962.14
2016-12-21T06:35:34.784Z,962.12
2016-12-21T06:36:34.801Z,962.17
2016-12-21T06:37:34.808Z,962.14
2016-12-21T06:38:34.820Z,962.16
2016-12-21T06:39:34.831Z,962.17
2016-12-21T06:40:34.843Z,962.16
2016-12-21T06:41:34.854Z,962.19
2016-12-21T06:42:34.865Z,962.22
2016-12-21T06:43:34.879Z,962.2
2016-12-21T06:44:34.893Z,962.23
2016-12-21T06:45:34.901Z,962.22
2016-12-21T06:46:34.911Z,962.24
2016-12-21T06:47:34.924Z,962.22
2016-12-21T06:48:34.936Z,962.24
2016-12-21T06:49:34.947Z,962.28
2016-12-21T06:50:34.958Z,962.27
2016-12-21T06:51:34.970Z,962.24
2016-12-21T06:52:34.983Z,962.26
2016-12-21T06:53:34.991Z,962.28
2016-12-21T06:54:35.005Z,962.3
2016-12-21T06:55:35.017Z,962.33
2016-12-21T06:56:35.028Z,962.29
2016-12-21T06:57:35.039Z,962.36
2016-12-21T06:58:35.051Z,962.33
2016-12-21T06:59:35.065Z,962.33
2016-12-21T07:00:35.075Z,962.34
2016-12-21T07:01:35.086Z,962.35
2016-12-21T07:02:35.099Z,962.36
2016-12-21T07:03:35.110Z,962.32
2016-12-21T07:04:35.119Z,962.34
2016-12-21T07:05:35.154Z,962.34
2016-12-21T07:06:35.145Z,962.36
2016-12-21T07:07:35.157Z,962.4
2016-12-21T07:08:35.169Z,962.43
2016-12-21T07:09:35.180Z,962.44
2016-12-21T07:10:35.194Z,962.48
2016-12-21T07:11:35.206Z,962.46
2016-12-21T07:12:35.219Z,962.51
2016-12-21T07:13:35.227Z,962.51
2016-12-21T07:14:35.239Z,962.55
2016-12-21T07:15:35.251Z,962.62
2016-12-21T07:16:35.262Z,962.63
2016-12-21T07:17:35.273Z,962.63
2016-12-21T07:18:35.286Z,962.59
2016-12-21T07:19:35.302Z,962.63
2016-12-21T07:20:35.309Z,962.64
2016-12-21T07:21:35.321Z,962.69
2016-12-21T07:22:35.332Z,962.7
2016-12-21T07:23:35.345Z,962.68
2016-12-21T07:24:35.356Z,962.68
2016-12-21T07:25:35.368Z,962.71
2016-12-21T07:26:35.379Z,962.68
2016-12-21T07:27:35.391Z,962.69
2016-12-21T07:28:35.404Z,962.66
2016-12-21T07:29:35.415Z,962.69
2016-12-21T07:30:35.426Z,962.71
2016-12-21T07:31:35.438Z,962.71
2016-12-21T07:32:35.449Z,962.68
2016-12-21T07:33:35.474Z,962.7
2016-12-21T07:34:35.474Z,962.7
2016-12-21T07:35:35.485Z,962.74
2016-12-21T07:36:35.496Z,962.74
2016-12-21T07:37:35.508Z,962.71
2016-12-21T07:38:35.520Z,962.72
2016-12-21T07:39:35.531Z,962.75
2016-12-21T07:40:35.544Z,962.73
2016-12-21T07:41:35.554Z,962.73
2016-12-21T07:42:35.566Z,962.73
2016-12-21T07:43:35.579Z,962.71
2016-12-21T07:44:35.590Z,962.73
2016-12-21T07:45:35.603Z,962.73
2016-12-21T07:46:35.614Z,962.74
2016-12-21T07:47:35.629Z,962.78
2016-12-21T07:48:35.638Z,962.72
2016-12-21T07:49:35.649Z,962.77
2016-12-21T07:50:35.661Z,962.77
2016-12-21T07:51:35.673Z,962.76
2016-12-21T07:52:35.685Z,962.78
2016-12-21T07:53:35.697Z,962.79
2016-12-21T07:54:35.710Z,962.81
2016-12-21T07:55:35.719Z,962.79
2016-12-21T07:56:35.732Z,962.82
2016-12-21T07:57:35.744Z,962.86
2016-12-21T07:58:35.756Z,962.89
2016-12-21T07:59:35.766Z,962.95
2016-12-21T08:00:35.778Z,962.96
2016-12-21T08:01:35.789Z,963
2016-12-21T08:02:35.803Z,963
2016-12-21T08:03:35.814Z,963.01
2016-12-21T08:04:35.824Z,963.01
2016-12-21T08:05:35.837Z,963.04
2016-12-21T08:06:35.851Z,963.04
2016-12-21T08:07:35.860Z,963.02
2016-12-21T08:08:35.874Z,963.02
2016-12-21T08:09:35.894Z,963.03
2016-12-21T08:10:35.897Z,963.04
2016-12-21T08:11:35.906Z,963.04
2016-12-21T08:12:35.920Z,963.06
2016-12-21T08:13:35.931Z,963.07
2016-12-21T08:14:35.944Z,963.04
2016-12-21T08:15:35.955Z,963.08
2016-12-21T08:16:35.966Z,963.11
2016-12-21T08:17:35.975Z,963.12
2016-12-21T08:18:35.989Z,963.12
2016-12-21T08:19:36.001Z,963.12
2016-12-21T08:20:36.013Z,963.15
2016-12-21T08:21:36.024Z,963.15
2016-12-21T08:22:36.037Z,963.19
2016-12-21T08:23:36.048Z,963.16
2016-12-21T08:24:36.060Z,963.23
2016-12-21T08:25:36.072Z,963.22
2016-12-21T08:26:36.084Z,963.27
2016-12-21T08:27:36.095Z,963.26
2016-12-21T08:28:36.106Z,963.27
2016-12-21T08:29:36.117Z,963.31
2016-12-21T08:30:36.150Z,963.34
2016-12-21T08:31:36.142Z,963.31
2016-12-21T08:32:36.154Z,963.39
2016-12-21T08:33:36.165Z,963.41
2016-12-21T08:34:36.177Z,963.35
2016-12-21T08:35:36.191Z,963.37
2016-12-21T08:36:36.199Z,963.39
2016-12-21T08:37:36.216Z,963.38
2016-12-21T08:38:36.223Z,963.39
2016-12-21T08:39:36.233Z,963.39
2016-12-21T08:40:36.246Z,963.42
2016-12-21T08:41:36.257Z,963.4
2016-12-21T08:42:36.269Z,963.4
2016-12-21T08:43:36.281Z,963.39
2016-12-21T08:44:36.299Z,963.45
2016-12-21T08:45:36.304Z,963.47
2016-12-21T08:46:36.316Z,963.47
2016-12-21T08:47:36.328Z,963.47
2016-12-21T08:48:36.339Z,963.45
2016-12-21T08:49:36.351Z,963.47
2016-12-21T08:50:36.363Z,963.52
2016-12-21T08:51:36.374Z,963.52
2016-12-21T08:52:36.386Z,963.49
2016-12-21T08:53:36.397Z,963.54
2016-12-21T08:54:36.409Z,963.53
2016-12-21T08:55:36.422Z,963.55
2016-12-21T08:56:36.433Z,963.55
2016-12-21T08:57:36.445Z,963.53
2016-12-21T08:58:36.456Z,963.56
2016-12-21T08:59:36.468Z,963.58
2016-12-21T09:00:36.479Z,963.56
2016-12-21T09:01:36.491Z,963.59
2016-12-21T09:02:36.504Z,963.62
2016-12-21T09:03:36.515Z,963.65
2016-12-21T09:04:36.526Z,963.65
2016-12-21T09:05:36.537Z,963.68
2016-12-21T09:06:36.565Z,963.68
2016-12-21T09:07:36.562Z,963.68
2016-12-21T09:08:36.573Z,963.67
2016-12-21T09:09:36.586Z,963.71
2016-12-21T09:10:36.597Z,963.7
2016-12-21T09:11:36.609Z,963.72
2016-12-21T09:12:36.622Z,963.73
2016-12-21T09:13:36.634Z,963.76
2016-12-21T09:14:36.645Z,963.78
2016-12-21T09:15:36.657Z,963.79
2016-12-21T09:16:36.668Z,963.82
2016-12-21T09:17:36.680Z,963.77
2016-12-21T09:18:36.693Z,963.76
2016-12-21T09:19:36.704Z,963.8
2016-12-21T09:20:36.716Z,963.78
2016-12-21T09:21:36.729Z,963.81
2016-12-21T09:22:36.741Z,963.79
2016-12-21T09:23:36.752Z,963.79
2016-12-21T09:24:36.766Z,963.82
2016-12-21T09:25:36.777Z,963.77
2016-12-21T09:26:36.788Z,963.81
2016-12-21T09:27:36.820Z,963.82
2016-12-21T09:28:36.812Z,963.82
2016-12-21T09:29:36.825Z,963.79
2016-12-21T09:30:36.837Z,963.85
2016-12-21T09:31:36.850Z,963.81
2016-12-21T09:32:36.859Z,963.82
2016-12-21T09:33:36.873Z,963.87
2016-12-21T09:34:36.884Z,963.81
2016-12-21T09:35:36.897Z,963.86
2016-12-21T09:36:36.908Z,963.84
2016-12-21T09:37:36.921Z,963.83
2016-12-21T09:38:36.932Z,963.83
2016-12-21T09:39:36.945Z,963.82
2016-12-21T09:40:36.957Z,963.83
2016-12-21T09:41:36.970Z,963.86
2016-12-21T09:42:36.981Z,963.83
2016-12-21T09:43:36.992Z,963.86
2016-12-21T09:44:37.005Z,963.84
2016-12-21T09:45:37.017Z,963.87
2016-12-21T09:46:37.030Z,963.9
2016-12-21T09:47:37.058Z,963.89
2016-12-21T09:48:37.054Z,963.9
2016-12-21T09:49:37.066Z,963.93
2016-12-21T09:50:37.079Z,963.93
2016-12-21T09:51:37.096Z,963.92
2016-12-21T09:52:37.105Z,963.96
2016-12-21T09:53:37.117Z,963.94
2016-12-21T09:54:37.128Z,963.97
2016-12-21T09:55:37.140Z,963.97
2016-12-21T09:56:37.174Z,963.99
2016-12-21T09:57:37.164Z,964.04
2016-12-21T09:58:37.177Z,964.04
2016-12-21T09:59:37.191Z,964.04
2016-12-21T10:00:37.200Z,964.07
2016-12-21T10:01:37.219Z,964.07
2016-12-21T10:02:37.227Z,964.09
2016-12-21T10:03:37.241Z,964.08
2016-12-21T10:04:37.250Z,964.11
2016-12-21T10:05:37.263Z,964.13
2016-12-21T10:06:37.275Z,964.1
2016-12-21T10:07:37.287Z,964.13
2016-12-21T10:08:37.304Z,964.1
2016-12-21T10:09:37.312Z,964.18
2016-12-21T10:10:37.326Z,964.16
2016-12-21T10:11:37.337Z,964.09
2016-12-21T10:12:37.353Z,964.11
2016-12-21T10:13:37.362Z,964.05
2016-12-21T10:14:37.372Z,964.07
2016-12-21T10:15:37.387Z,964.07
2016-12-21T10:16:37.400Z,964.04
2016-12-21T10:17:37.431Z,964.07
2016-12-21T10:18:37.423Z,964.01
2016-12-21T10:19:37.436Z,964.04
2016-12-21T10:20:37.449Z,963.99
2016-12-21T10:21:37.461Z,964.1
2016-12-21T10:22:37.476Z,964.1
2016-12-21T10:23:37.486Z,964.08
2016-12-21T10:24:37.583Z,964.12
2016-12-21T10:25:37.510Z,964.1
2016-12-21T10:26:37.523Z,964.13
2016-12-21T10:27:37.536Z,964.12
2016-12-21T10:28:37.548Z,964.12
2016-12-21T10:29:37.560Z,964.14
2016-12-21T10:30:37.574Z,964.14
2016-12-21T10:31:37.586Z,964.14
2016-12-21T10:32:37.599Z,964.21
2016-12-21T10:33:37.610Z,964.21
2016-12-21T10:34:37.623Z,964.19
2016-12-21T10:35:37.636Z,964.26
2016-12-21T10:36:37.647Z,964.29
2016-12-21T10:37:37.661Z,964.25
2016-12-21T10:38:37.673Z,964.29
2016-12-21T10:39:37.685Z,964.24
2016-12-21T10:40:37.697Z,964.25
2016-12-21T10:41:37.760Z,964.27
2016-12-21T10:42:37.725Z,964.26
2016-12-21T10:43:37.737Z,964.27
2016-12-21T10:44:37.747Z,964.28
2016-12-21T10:45:37.763Z,964.26
2016-12-21T10:46:37.787Z,964.31
2016-12-21T10:47:37.784Z,964.28
2016-12-21T10:48:37.796Z,964.33
2016-12-21T10:49:37.809Z,964.31
2016-12-21T10:50:37.822Z,964.34
2016-12-21T10:51:37.833Z,964.3
2016-12-21T10:52:37.847Z,964.3
2016-12-21T10:53:37.860Z,964.29
2016-12-21T10:54:37.871Z,964.34
2016-12-21T10:55:37.973Z,964.3
2016-12-21T10:56:37.971Z,964.31
2016-12-21T10:57:37.909Z,964.28
2016-12-21T10:58:37.923Z,964.24
2016-12-21T10:59:37.932Z,964.24
2016-12-21T11:00:37.944Z,964.22
2016-12-21T11:01:37.957Z,964.19
2016-12-21T11:02:37.968Z,964.21
2016-12-21T11:03:37.980Z,964.22
2016-12-21T11:04:37.993Z,964.21
2016-12-21T11:05:38.004Z,964.2
2016-12-21T11:06:38.016Z,964.2
2016-12-21T11:07:38.045Z,964.19
2016-12-21T11:08:38.042Z,964.2
2016-12-21T11:09:38.053Z,964.24
2016-12-21T11:10:38.065Z,964.23
2016-12-21T11:11:38.078Z,964.3
2016-12-21T11:12:38.091Z,964.27
2016-12-21T11:13:38.102Z,964.27
2016-12-21T11:14:38.115Z,964.3
2016-12-21T11:15:38.127Z,964.3
2016-12-21T11:16:38.137Z,964.31
2016-12-21T11:17:38.151Z,964.29
2016-12-21T11:18:38.161Z,964.35
2016-12-21T11:19:38.176Z,964.36
2016-12-21T11:20:38.186Z,964.33
2016-12-21T11:21:38.199Z,964.36
2016-12-21T11:22:38.211Z,964.35
2016-12-21T11:23:38.225Z,964.29
2016-12-21T11:24:38.236Z,964.32
2016-12-21T11:25:38.247Z,964.37
2016-12-21T11:26:38.260Z,964.4
2016-12-21T11:27:38.271Z,964.35
2016-12-21T11:28:38.283Z,964.31
2016-12-21T11:29:38.297Z,964.36
2016-12-21T11:30:38.307Z,964.36
2016-12-21T11:31:38.319Z,964.35
2016-12-21T11:32:38.332Z,964.34
2016-12-21T11:33:38.345Z,964.35
2016-12-21T11:34:38.357Z,964.32
2016-12-21T11:35:38.369Z,964.26
2016-12-21T11:36:38.401Z,964.27
2016-12-21T11:37:38.393Z,964.24
2016-12-21T11:38:38.406Z,964.22
2016-12-21T11:39:38.418Z,964.18
2016-12-21T11:40:38.430Z,964.2
2016-12-21T11:41:38.445Z,964.15
2016-12-21T11:42:38.455Z,964.17
2016-12-21T11:43:38.467Z,964.25
2016-12-21T11:44:38.479Z,964.24
2016-12-21T11:45:38.492Z,964.22
2016-12-21T11:46:38.503Z,964.18
2016-12-21T11:47:38.517Z,964.15
2016-12-21T11:48:38.528Z,964.13
2016-12-21T11:49:38.539Z,964.14
2016-12-21T11:50:38.554Z,964.17
2016-12-21T11:51:38.565Z,964.16
2016-12-21T11:52:38.579Z,964.13
2016-12-21T11:53:38.589Z,964.11
2016-12-21T11:54:38.601Z,964.1
2016-12-21T11:55:38.613Z,964.13
2016-12-21T11:56:38.626Z,964.1
2016-12-21T11:57:38.658Z,964.13
2016-12-21T11:58:38.651Z,964.15
2016-12-21T11:59:38.663Z,964.13
2016-12-21T12:00:38.675Z,964.12
2016-12-21T12:01:38.686Z,964.13
2016-12-21T12:02:38.700Z,964.15
2016-12-21T12:03:38.711Z,964.15
2016-12-21T12:04:38.723Z,964.1
2016-12-21T12:05:38.735Z,964.16
2016-12-21T12:06:38.749Z,964.1
2016-12-21T12:07:38.762Z,964.16
2016-12-21T12:08:38.773Z,964.15
2016-12-21T12:09:38.784Z,964.11
2016-12-21T12:10:38.797Z,964.13
2016-12-21T12:11:38.809Z,964.12
2016-12-21T12:12:38.830Z,964.13
2016-12-21T12:13:38.833Z,964.12
2016-12-21T12:14:38.846Z,964.12
2016-12-21T12:15:38.856Z,964.09
2016-12-21T12:16:38.869Z,964.1
2016-12-21T12:17:38.882Z,964.13
2016-12-21T12:18:38.894Z,964.12
2016-12-21T12:19:38.906Z,964.1
2016-12-21T12:20:38.918Z,964.11
2016-12-21T12:21:38.930Z,964.08
2016-12-21T12:22:38.942Z,964.07
2016-12-21T12:23:38.955Z,964.08
2016-12-21T12:24:38.967Z,964.07
2016-12-21T12:25:38.979Z,964.09
2016-12-21T12:26:38.993Z,964.07
2016-12-21T12:27:39.003Z,964.09
2016-12-21T12:28:39.016Z,964.1
2016-12-21T12:29:39.028Z,964.1
2016-12-21T12:30:39.040Z,964.1
2016-12-21T12:31:39.053Z,964.14